sensor_id;sensor_type;location;lat;lon;timestamp;P1;durP1;ratioP1;P2;durP2;ratioP2
9667;SDS011;4872;48.316;10.650;2023-06-10T04:09:39;12.57;;;11.30;;
9667;SDS011;4872;48.316;10.650;2023-06-10T04:12:06;12.30;;;11.07;;
9667;SDS011;4872;48.316;10.650;2023-06-10T04:14:34;12.17;;;10.87;;
9667;SDS011;4872;48.316;10.650;2023-06-10T04:17:02;12.67;;;11.40;;
9667;SDS011;4872;48.316;10.650;2023-06-10T04:19:31;11.50;;;10.30;;
9667;SDS011;4872;48.316;10.650;2023-06-10T04:22:00;10.50;;;9.57;;
9667;SDS011;4872;48.316;10.650;2023-06-10T04:24:27;11.80;;;10.57;;
9667;SDS011;4872;48.316;10.650;2023-06-10T04:26:55;10.73;;;9.57;;
9667;SDS011;4872;48.316;10.650;2023-06-10T04:29:22;10.67;;;9.67;;
9667;SDS011;4872;48.316;10.650;2023-06-10T04:31:49;11.67;;;10.47;;
9667;SDS011;4872;48.316;10.650;2023-06-10T04:34:15;13.13;;;11.30;;
9667;SDS011;4872;48.316;10.650;2023-06-10T04:36:42;11.83;;;10.67;;
9667;SDS011;4872;48.316;10.650;2023-06-10T04:39:09;13.27;;;11.00;;
9667;SDS011;4872;48.316;10.650;2023-06-10T04:41:35;13.10;;;11.70;;
9667;SDS011;4872;48.316;10.650;2023-06-10T04:44:03;12.47;;;11.10;;
9667;SDS011;4872;48.316;10.650;2023-06-10T04:46:30;14.80;;;11.30;;
9667;SDS011;4872;48.316;10.650;2023-06-10T04:48:57;12.13;;;10.93;;
9667;SDS011;4872;48.316;10.650;2023-06-10T04:51:23;11.47;;;10.20;;
9667;SDS011;4872;48.316;10.650;2023-06-10T04:53:50;12.20;;;11.00;;
9667;SDS011;4872;48.316;10.650;2023-06-10T04:56:17;13.63;;;11.63;;
9667;SDS011;4872;48.316;10.650;2023-06-10T04:58:45;11.53;;;10.47;;
9667;SDS011;4872;48.316;10.650;2023-06-10T05:01:13;12.43;;;11.13;;
9667;SDS011;4872;48.316;10.650;2023-06-10T05:03:40;12.73;;;10.67;;
9667;SDS011;4872;48.316;10.650;2023-06-10T05:06:06;12.20;;;11.00;;
9667;SDS011;4872;48.316;10.650;2023-06-10T05:08:33;12.53;;;11.10;;
9667;SDS011;4872;48.316;10.650;2023-06-10T05:11:00;12.47;;;11.27;;
9667;SDS011;4872;48.316;10.650;2023-06-10T05:13:27;13.07;;;11.70;;
9667;SDS011;4872;48.316;10.650;2023-06-10T05:15:53;11.93;;;10.70;;
9667;SDS011;4872;48.316;10.650;2023-06-10T05:18:21;12.03;;;10.77;;
9667;SDS011;4872;48.316;10.650;2023-06-10T05:20:48;11.83;;;10.00;;
9667;SDS011;4872;48.316;10.650;2023-06-10T05:23:15;13.87;;;11.03;;
9667;SDS011;4872;48.316;10.650;2023-06-10T05:25:42;10.97;;;9.87;;
9667;SDS011;4872;48.316;10.650;2023-06-10T05:28:09;11.37;;;10.27;;
9667;SDS011;4872;48.316;10.650;2023-06-10T05:30:36;11.87;;;10.67;;
9667;SDS011;4872;48.316;10.650;2023-06-10T05:33:03;11.03;;;10.03;;
9667;SDS011;4872;48.316;10.650;2023-06-10T05:35:31;12.90;;;10.97;;
9667;SDS011;4872;48.316;10.650;2023-06-10T05:37:57;11.10;;;10.10;;
9667;SDS011;4872;48.316;10.650;2023-06-10T05:40:24;11.73;;;10.57;;
9667;SDS011;4872;48.316;10.650;2023-06-10T05:42:51;12.03;;;10.77;;
9667;SDS011;4872;48.316;10.650;2023-06-10T05:45:18;12.23;;;10.93;;
9667;SDS011;4872;48.316;10.650;2023-06-10T05:47:44;10.00;;;9.07;;
9667;SDS011;4872;48.316;10.650;2023-06-10T05:50:11;11.20;;;10.10;;
9667;SDS011;4872;48.316;10.650;2023-06-10T05:52:39;10.10;;;9.10;;
9667;SDS011;4872;48.316;10.650;2023-06-10T05:55:06;11.23;;;10.13;;
9667;SDS011;4872;48.316;10.650;2023-06-10T05:57:33;10.27;;;9.20;;
9667;SDS011;4872;48.316;10.650;2023-06-10T06:00:00;10.17;;;9.17;;
9667;SDS011;4872;48.316;10.650;2023-06-10T06:02:27;10.50;;;9.50;;
9667;SDS011;4872;48.316;10.650;2023-06-10T06:04:53;10.07;;;8.90;;
9667;SDS011;4872;48.316;10.650;2023-06-10T06:07:20;10.33;;;9.30;;
9667;SDS011;4872;48.316;10.650;2023-06-10T06:09:48;8.93;;;8.03;;
9667;SDS011;4872;48.316;10.650;2023-06-10T06:12:15;10.13;;;9.13;;
9667;SDS011;4872;48.316;10.650;2023-06-10T06:14:42;9.80;;;8.77;;
9667;SDS011;4872;48.316;10.650;2023-06-10T06:17:09;10.53;;;9.43;;
9667;SDS011;4872;48.316;10.650;2023-06-10T06:19:36;10.00;;;9.03;;
9667;SDS011;4872;48.316;10.650;2023-06-10T06:22:03;10.40;;;9.40;;
9667;SDS011;4872;48.316;10.650;2023-06-10T06:24:30;9.93;;;9.03;;
9667;SDS011;4872;48.316;10.650;2023-06-10T06:26:58;9.90;;;8.80;;
9667;SDS011;4872;48.316;10.650;2023-06-10T06:29:25;9.70;;;8.80;;
9667;SDS011;4872;48.316;10.650;2023-06-10T06:31:51;9.73;;;8.83;;
9667;SDS011;4872;48.316;10.650;2023-06-10T06:34:18;9.80;;;8.80;;
9667;SDS011;4872;48.316;10.650;2023-06-10T06:36:45;9.57;;;8.77;;
9667;SDS011;4872;48.316;10.650;2023-06-10T06:39:11;10.47;;;8.67;;
9667;SDS011;4872;48.316;10.650;2023-06-10T06:41:38;10.50;;;9.50;;
9667;SDS011;4872;48.316;10.650;2023-06-10T06:44:06;9.10;;;8.20;;
9667;SDS011;4872;48.316;10.650;2023-06-10T06:46:33;9.33;;;8.43;;
9667;SDS011;4872;48.316;10.650;2023-06-10T06:49:00;8.23;;;7.43;;
9667;SDS011;4872;48.316;10.650;2023-06-10T06:51:26;8.23;;;7.43;;
9667;SDS011;4872;48.316;10.650;2023-06-10T06:53:53;8.40;;;7.60;;
9667;SDS011;4872;48.316;10.650;2023-06-10T06:56:23;8.93;;;8.03;;
9667;SDS011;4872;48.316;10.650;2023-06-10T06:58:51;8.70;;;7.80;;
9667;SDS011;4872;48.316;10.650;2023-06-10T07:01:19;9.37;;;8.37;;
9667;SDS011;4872;48.316;10.650;2023-06-10T07:03:46;10.83;;;8.20;;
9667;SDS011;4872;48.316;10.650;2023-06-10T07:06:13;8.80;;;7.90;;
9667;SDS011;4872;48.316;10.650;2023-06-10T07:08:40;7.57;;;6.87;;
9667;SDS011;4872;48.316;10.650;2023-06-10T07:11:06;8.23;;;7.43;;
9667;SDS011;4872;48.316;10.650;2023-06-10T07:13:33;8.53;;;7.73;;
9667;SDS011;4872;48.316;10.650;2023-06-10T07:16:00;7.43;;;6.73;;
9667;SDS011;4872;48.316;10.650;2023-06-10T07:18:28;8.07;;;6.80;;
9667;SDS011;4872;48.316;10.650;2023-06-10T07:20:54;8.53;;;7.67;;
9667;SDS011;4872;48.316;10.650;2023-06-10T07:23:22;7.87;;;7.07;;
9667;SDS011;4872;48.316;10.650;2023-06-10T07:25:49;8.17;;;7.37;;
9667;SDS011;4872;48.316;10.650;2023-06-10T07:28:16;8.20;;;6.63;;
9667;SDS011;4872;48.316;10.650;2023-06-10T07:30:42;8.30;;;7.13;;
9667;SDS011;4872;48.316;10.650;2023-06-10T07:33:09;7.30;;;6.70;;
9667;SDS011;4872;48.316;10.650;2023-06-10T07:35:37;7.10;;;6.50;;
9667;SDS011;4872;48.316;10.650;2023-06-10T07:38:04;7.67;;;6.87;;
9667;SDS011;4872;48.316;10.650;2023-06-10T07:40:31;7.93;;;7.23;;
9667;SDS011;4872;48.316;10.650;2023-06-10T07:42:57;7.40;;;6.70;;
9667;SDS011;4872;48.316;10.650;2023-06-10T07:45:24;6.67;;;6.07;;
9667;SDS011;4872;48.316;10.650;2023-06-10T07:47:51;6.13;;;5.53;;
9667;SDS011;4872;48.316;10.650;2023-06-10T07:50:17;7.03;;;6.30;;
9667;SDS011;4872;48.316;10.650;2023-06-10T07:52:45;5.60;;;5.10;;
9667;SDS011;4872;48.316;10.650;2023-06-10T07:55:12;6.77;;;6.17;;
9667;SDS011;4872;48.316;10.650;2023-06-10T07:57:39;7.20;;;6.27;;
9667;SDS011;4872;48.316;10.650;2023-06-10T08:00:06;6.40;;;5.80;;
9667;SDS011;4872;48.316;10.650;2023-06-10T08:02:34;6.37;;;5.77;;
9667;SDS011;4872;48.316;10.650;2023-06-10T08:05:01;6.80;;;6.17;;
9667;SDS011;4872;48.316;10.650;2023-06-10T08:07:27;6.07;;;5.47;;
9667;SDS011;4872;48.316;10.650;2023-06-10T08:09:55;6.47;;;5.90;;
9667;SDS011;4872;48.316;10.650;2023-06-10T08:12:22;5.07;;;4.67;;
9667;SDS011;4872;48.316;10.650;2023-06-10T08:14:49;6.13;;;5.63;;
9667;SDS011;4872;48.316;10.650;2023-06-10T08:17:16;6.17;;;5.57;;
9667;SDS011;4872;48.316;10.650;2023-06-10T08:19:42;6.00;;;5.40;;
9667;SDS011;4872;48.316;10.650;2023-06-10T08:22:09;5.60;;;5.10;;
9667;SDS011;4872;48.316;10.650;2023-06-10T08:24:36;5.93;;;5.33;;
9667;SDS011;4872;48.316;10.650;2023-06-10T08:27:04;5.87;;;5.33;;
9667;SDS011;4872;48.316;10.650;2023-06-10T08:29:31;6.53;;;5.90;;
9667;SDS011;4872;48.316;10.650;2023-06-10T08:31:58;6.63;;;6.03;;
9667;SDS011;4872;48.316;10.650;2023-06-10T08:34:25;6.37;;;5.77;;
9667;SDS011;4872;48.316;10.650;2023-06-10T08:36:52;6.20;;;5.60;;
9667;SDS011;4872;48.316;10.650;2023-06-10T08:39:20;6.63;;;5.53;;
9667;SDS011;4872;48.316;10.650;2023-06-10T08:41:51;5.67;;;5.17;;
9667;SDS011;4872;48.316;10.650;2023-06-10T08:44:28;6.40;;;5.80;;
9667;SDS011;4872;48.316;10.650;2023-06-10T08:46:56;6.50;;;5.90;;
9667;SDS011;4872;48.316;10.650;2023-06-10T08:49:26;6.47;;;5.83;;
9667;SDS011;4872;48.316;10.650;2023-06-10T08:51:58;6.33;;;5.20;;
9667;SDS011;4872;48.316;10.650;2023-06-10T08:54:26;5.87;;;5.37;;
9667;SDS011;4872;48.316;10.650;2023-06-10T08:56:56;5.70;;;5.20;;
9667;SDS011;4872;48.316;10.650;2023-06-10T08:59:25;6.27;;;5.67;;
9667;SDS011;4872;48.316;10.650;2023-06-10T09:01:53;6.40;;;5.80;;
9667;SDS011;4872;48.316;10.650;2023-06-10T09:04:20;5.60;;;5.10;;
9667;SDS011;4872;48.316;10.650;2023-06-10T09:06:48;5.57;;;4.97;;
9667;SDS011;4872;48.316;10.650;2023-06-10T09:09:15;5.27;;;4.83;;
9667;SDS011;4872;48.316;10.650;2023-06-10T09:11:42;6.07;;;5.57;;
9667;SDS011;4872;48.316;10.650;2023-06-10T09:14:09;5.57;;;5.07;;
9667;SDS011;4872;48.316;10.650;2023-06-10T09:16:37;5.70;;;5.20;;
9667;SDS011;4872;48.316;10.650;2023-06-10T09:19:06;5.40;;;4.90;;
9667;SDS011;4872;48.316;10.650;2023-06-10T09:21:33;6.13;;;5.53;;
9667;SDS011;4872;48.316;10.650;2023-06-10T09:24:01;4.93;;;4.53;;
9667;SDS011;4872;48.316;10.650;2023-06-10T09:26:28;5.37;;;4.87;;
9667;SDS011;4872;48.316;10.650;2023-06-10T09:29:01;5.67;;;5.17;;
9667;SDS011;4872;48.316;10.650;2023-06-10T09:31:30;5.37;;;4.70;;
9667;SDS011;4872;48.316;10.650;2023-06-10T09:34:05;5.23;;;4.77;;
9667;SDS011;4872;48.316;10.650;2023-06-10T09:36:33;6.37;;;4.83;;
9667;SDS011;4872;48.316;10.650;2023-06-10T09:39:00;5.20;;;4.53;;
9667;SDS011;4872;48.316;10.650;2023-06-10T09:41:39;5.93;;;5.43;;
9667;SDS011;4872;48.316;10.650;2023-06-10T09:44:09;5.50;;;4.97;;
9667;SDS011;4872;48.316;10.650;2023-06-10T09:46:38;5.67;;;5.17;;
9667;SDS011;4872;48.316;10.650;2023-06-10T09:49:06;6.30;;;5.70;;
9667;SDS011;4872;48.316;10.650;2023-06-10T09:51:33;6.03;;;5.27;;
9667;SDS011;4872;48.316;10.650;2023-06-10T09:54:01;6.83;;;5.17;;
9667;SDS011;4872;48.316;10.650;2023-06-10T09:56:32;7.27;;;5.43;;
9667;SDS011;4872;48.316;10.650;2023-06-10T09:59:00;6.43;;;5.87;;
9667;SDS011;4872;48.316;10.650;2023-06-10T10:01:26;6.37;;;5.70;;
9667;SDS011;4872;48.316;10.650;2023-06-10T10:03:53;6.17;;;4.80;;
9667;SDS011;4872;48.316;10.650;2023-06-10T10:06:21;5.63;;;5.10;;
9667;SDS011;4872;48.316;10.650;2023-06-10T10:08:48;5.43;;;4.93;;
9667;SDS011;4872;48.316;10.650;2023-06-10T10:11:17;6.00;;;5.40;;
9667;SDS011;4872;48.316;10.650;2023-06-10T10:13:46;5.27;;;4.77;;
9667;SDS011;4872;48.316;10.650;2023-06-10T10:16:15;4.97;;;4.57;;
9667;SDS011;4872;48.316;10.650;2023-06-10T10:18:43;5.13;;;4.70;;
9667;SDS011;4872;48.316;10.650;2023-06-10T10:21:15;5.53;;;5.03;;
9667;SDS011;4872;48.316;10.650;2023-06-10T10:23:51;6.37;;;4.70;;
9667;SDS011;4872;48.316;10.650;2023-06-10T10:26:20;5.83;;;5.33;;
9667;SDS011;4872;48.316;10.650;2023-06-10T10:28:51;5.70;;;5.13;;
9667;SDS011;4872;48.316;10.650;2023-06-10T10:31:24;5.27;;;4.77;;
9667;SDS011;4872;48.316;10.650;2023-06-10T10:33:54;5.80;;;5.23;;
9667;SDS011;4872;48.316;10.650;2023-06-10T10:36:24;6.00;;;5.50;;
9667;SDS011;4872;48.316;10.650;2023-06-10T10:38:53;4.70;;;4.30;;
9667;SDS011;4872;48.316;10.650;2023-06-10T10:41:20;5.40;;;4.30;;
9667;SDS011;4872;48.316;10.650;2023-06-10T10:43:48;4.83;;;4.43;;
9667;SDS011;4872;48.316;10.650;2023-06-10T10:46:16;4.80;;;4.40;;
9667;SDS011;4872;48.316;10.650;2023-06-10T10:48:43;5.17;;;4.63;;
9667;SDS011;4872;48.316;10.650;2023-06-10T10:51:10;5.00;;;4.60;;
9667;SDS011;4872;48.316;10.650;2023-06-10T10:53:37;5.37;;;4.87;;
9667;SDS011;4872;48.316;10.650;2023-06-10T10:56:06;5.57;;;5.03;;
9667;SDS011;4872;48.316;10.650;2023-06-10T10:58:34;5.50;;;5.03;;
9667;SDS011;4872;48.316;10.650;2023-06-10T11:01:09;5.03;;;4.53;;
9667;SDS011;4872;48.316;10.650;2023-06-10T11:03:41;5.53;;;4.80;;
9667;SDS011;4872;48.316;10.650;2023-06-10T11:06:11;5.47;;;4.97;;
9667;SDS011;4872;48.316;10.650;2023-06-10T11:08:45;6.43;;;5.83;;
9667;SDS011;4872;48.316;10.650;2023-06-10T11:11:21;5.60;;;5.10;;
9667;SDS011;4872;48.316;10.650;2023-06-10T11:14:06;5.43;;;4.93;;
9667;SDS011;4872;48.316;10.650;2023-06-10T11:16:38;5.50;;;5.00;;
9667;SDS011;4872;48.316;10.650;2023-06-10T11:19:06;5.27;;;4.60;;
9667;SDS011;4872;48.316;10.650;2023-06-10T11:21:37;5.80;;;5.30;;
9667;SDS011;4872;48.316;10.650;2023-06-10T11:24:23;5.43;;;4.93;;
9667;SDS011;4872;48.316;10.650;2023-06-10T11:26:52;4.27;;;3.90;;
9667;SDS011;4872;48.316;10.650;2023-06-10T11:29:19;4.97;;;4.57;;
9667;SDS011;4872;48.316;10.650;2023-06-10T11:31:49;5.40;;;4.73;;
9667;SDS011;4872;48.316;10.650;2023-06-10T11:34:21;5.13;;;4.70;;
9667;SDS011;4872;48.316;10.650;2023-06-10T11:36:49;5.67;;;4.90;;
9667;SDS011;4872;48.316;10.650;2023-06-10T11:39:19;5.20;;;4.70;;
9667;SDS011;4872;48.316;10.650;2023-06-10T11:41:48;5.23;;;4.73;;
9667;SDS011;4872;48.316;10.650;2023-06-10T11:44:18;5.53;;;5.00;;
9667;SDS011;4872;48.316;10.650;2023-06-10T11:46:45;9.17;;;4.83;;
9667;SDS011;4872;48.316;10.650;2023-06-10T11:49:13;5.13;;;4.47;;
9667;SDS011;4872;48.316;10.650;2023-06-10T11:51:41;5.43;;;4.93;;
9667;SDS011;4872;48.316;10.650;2023-06-10T11:54:14;4.77;;;4.43;;
9667;SDS011;4872;48.316;10.650;2023-06-10T11:56:41;5.30;;;4.90;;
9667;SDS011;4872;48.316;10.650;2023-06-10T11:59:08;4.67;;;4.27;;
9667;SDS011;4872;48.316;10.650;2023-06-10T12:01:36;5.43;;;4.93;;
9667;SDS011;4872;48.316;10.650;2023-06-10T12:04:05;5.00;;;4.60;;
9667;SDS011;4872;48.316;10.650;2023-06-10T12:06:42;5.50;;;5.00;;
9667;SDS011;4872;48.316;10.650;2023-06-10T12:09:18;4.97;;;4.57;;
9667;SDS011;4872;48.316;10.650;2023-06-10T12:11:48;5.77;;;5.20;;
9667;SDS011;4872;48.316;10.650;2023-06-10T12:14:16;5.43;;;4.93;;
9667;SDS011;4872;48.316;10.650;2023-06-10T12:16:59;5.13;;;4.73;;
9667;SDS011;4872;48.316;10.650;2023-06-10T12:19:26;5.17;;;4.77;;
9667;SDS011;4872;48.316;10.650;2023-06-10T12:21:52;5.70;;;5.20;;
9667;SDS011;4872;48.316;10.650;2023-06-10T12:24:19;5.27;;;4.87;;
9667;SDS011;4872;48.316;10.650;2023-06-10T12:26:46;5.20;;;4.80;;
9667;SDS011;4872;48.316;10.650;2023-06-10T12:29:16;5.53;;;5.03;;
9667;SDS011;4872;48.316;10.650;2023-06-10T12:31:59;5.97;;;5.37;;
9667;SDS011;4872;48.316;10.650;2023-06-10T12:34:28;6.47;;;5.33;;
9667;SDS011;4872;48.316;10.650;2023-06-10T12:36:56;6.20;;;5.70;;
9667;SDS011;4872;48.316;10.650;2023-06-10T12:39:23;5.83;;;5.27;;
9667;SDS011;4872;48.316;10.650;2023-06-10T12:41:50;5.40;;;5.00;;
9667;SDS011;4872;48.316;10.650;2023-06-10T12:44:17;5.17;;;4.67;;
9667;SDS011;4872;48.316;10.650;2023-06-10T12:46:44;5.60;;;4.87;;
9667;SDS011;4872;48.316;10.650;2023-06-10T12:49:19;6.97;;;4.90;;
9667;SDS011;4872;48.316;10.650;2023-06-10T12:51:46;6.10;;;5.57;;
9667;SDS011;4872;48.316;10.650;2023-06-10T12:54:13;5.90;;;5.40;;
9667;SDS011;4872;48.316;10.650;2023-06-10T12:56:40;5.97;;;5.47;;
9667;SDS011;4872;48.316;10.650;2023-06-10T12:59:07;6.27;;;5.67;;
9667;SDS011;4872;48.316;10.650;2023-06-10T13:01:34;6.23;;;5.73;;
9667;SDS011;4872;48.316;10.650;2023-06-10T13:04:00;6.07;;;5.57;;
9667;SDS011;4872;48.316;10.650;2023-06-10T13:06:28;5.77;;;5.37;;
9667;SDS011;4872;48.316;10.650;2023-06-10T13:08:57;6.03;;;5.53;;
9667;SDS011;4872;48.316;10.650;2023-06-10T13:11:23;6.10;;;5.60;;
9667;SDS011;4872;48.316;10.650;2023-06-10T13:13:50;5.80;;;5.30;;
9667;SDS011;4872;48.316;10.650;2023-06-10T13:16:17;6.13;;;5.50;;
9667;SDS011;4872;48.316;10.650;2023-06-10T13:18:44;5.43;;;5.03;;
9667;SDS011;4872;48.316;10.650;2023-06-10T13:21:11;6.03;;;5.03;;
9667;SDS011;4872;48.316;10.650;2023-06-10T13:23:39;5.88;;;5.35;;
9667;SDS011;4872;48.316;10.650;2023-06-10T13:26:05;5.00;;;4.60;;
9667;SDS011;4872;48.316;10.650;2023-06-10T13:28:32;5.50;;;5.00;;
9667;SDS011;4872;48.316;10.650;2023-06-10T13:30:59;5.32;;;4.93;;
9667;SDS011;4872;48.316;10.650;2023-06-10T13:33:26;5.65;;;5.03;;
9667;SDS011;4872;48.316;10.650;2023-06-10T13:35:53;5.15;;;4.30;;
9667;SDS011;4872;48.316;10.650;2023-06-10T13:38:19;4.80;;;4.47;;
9667;SDS011;4872;48.316;10.650;2023-06-10T13:40:48;5.07;;;4.68;;
9667;SDS011;4872;48.316;10.650;2023-06-10T13:43:16;5.10;;;4.70;;
9667;SDS011;4872;48.316;10.650;2023-06-10T13:45:42;4.78;;;4.38;;
9667;SDS011;4872;48.316;10.650;2023-06-10T13:48:10;4.93;;;4.53;;
9667;SDS011;4872;48.316;10.650;2023-06-10T13:50:37;5.55;;;4.63;;
9667;SDS011;4872;48.316;10.650;2023-06-10T13:53:03;4.50;;;4.20;;
9667;SDS011;4872;48.316;10.650;2023-06-10T13:55:30;4.90;;;4.50;;
9667;SDS011;4872;48.316;10.650;2023-06-10T13:57:58;4.93;;;4.53;;
9667;SDS011;4872;48.316;10.650;2023-06-10T14:00:25;4.68;;;4.28;;
9667;SDS011;4872;48.316;10.650;2023-06-10T14:02:52;4.68;;;4.38;;
9667;SDS011;4872;48.316;10.650;2023-06-10T14:05:19;4.75;;;4.35;;
9667;SDS011;4872;48.316;10.650;2023-06-10T14:07:46;5.13;;;4.72;;
9667;SDS011;4872;48.316;10.650;2023-06-10T14:10:13;5.20;;;4.80;;
9667;SDS011;4872;48.316;10.650;2023-06-10T14:12:40;4.80;;;4.40;;
9667;SDS011;4872;48.316;10.650;2023-06-10T14:15:08;4.55;;;4.15;;
9667;SDS011;4872;48.316;10.650;2023-06-10T14:17:35;4.93;;;4.50;;
9667;SDS011;4872;48.316;10.650;2023-06-10T14:20:02;5.20;;;4.80;;
9667;SDS011;4872;48.316;10.650;2023-06-10T14:22:30;4.40;;;4.05;;
9667;SDS011;4872;48.316;10.650;2023-06-10T14:24:57;5.03;;;4.63;;
9667;SDS011;4872;48.316;10.650;2023-06-10T14:27:24;4.82;;;4.53;;
9667;SDS011;4872;48.316;10.650;2023-06-10T14:29:50;5.10;;;4.60;;
9667;SDS011;4872;48.316;10.650;2023-06-10T14:32:18;4.20;;;3.90;;
9667;SDS011;4872;48.316;10.650;2023-06-10T14:34:45;4.82;;;4.18;;
9667;SDS011;4872;48.316;10.650;2023-06-10T14:37:12;4.72;;;4.32;;
9667;SDS011;4872;48.316;10.650;2023-06-10T14:39:39;4.60;;;4.30;;
9667;SDS011;4872;48.316;10.650;2023-06-10T14:42:06;4.70;;;4.30;;
9667;SDS011;4872;48.316;10.650;2023-06-10T14:44:33;4.15;;;3.85;;
9667;SDS011;4872;48.316;10.650;2023-06-10T14:46:59;4.47;;;4.07;;
9667;SDS011;4872;48.316;10.650;2023-06-10T14:49:27;6.80;;;4.10;;
9667;SDS011;4872;48.316;10.650;2023-06-10T14:51:54;3.97;;;3.67;;
9667;SDS011;4872;48.316;10.650;2023-06-10T14:54:21;4.63;;;4.18;;
9667;SDS011;4872;48.316;10.650;2023-06-10T14:56:48;5.63;;;3.88;;
9667;SDS011;4872;48.316;10.650;2023-06-10T14:59:14;4.78;;;4.30;;
9667;SDS011;4872;48.316;10.650;2023-06-10T15:01:41;3.90;;;3.60;;
9667;SDS011;4872;48.316;10.650;2023-06-10T15:04:08;4.13;;;3.75;;
9667;SDS011;4872;48.316;10.650;2023-06-10T15:06:36;4.28;;;3.88;;
9667;SDS011;4872;48.316;10.650;2023-06-10T15:09:03;4.15;;;3.85;;
9667;SDS011;4872;48.316;10.650;2023-06-10T15:11:30;3.78;;;3.50;;
9667;SDS011;4872;48.316;10.650;2023-06-10T15:13:57;4.20;;;3.72;;
9667;SDS011;4872;48.316;10.650;2023-06-10T15:16:23;4.10;;;3.80;;
9667;SDS011;4872;48.316;10.650;2023-06-10T15:18:50;3.78;;;3.47;;
9667;SDS011;4872;48.316;10.650;2023-06-10T15:21:17;3.33;;;3.13;;
9667;SDS011;4872;48.316;10.650;2023-06-10T15:23:45;3.20;;;3.00;;
9667;SDS011;4872;48.316;10.650;2023-06-10T15:26:12;4.75;;;3.40;;
9667;SDS011;4872;48.316;10.650;2023-06-10T15:28:39;2.78;;;2.58;;
9667;SDS011;4872;48.316;10.650;2023-06-10T15:31:05;2.92;;;2.70;;
9667;SDS011;4872;48.316;10.650;2023-06-10T15:33:33;3.20;;;3.00;;
9667;SDS011;4872;48.316;10.650;2023-06-10T15:35:59;2.80;;;2.60;;
9667;SDS011;4872;48.316;10.650;2023-06-10T15:38:26;2.80;;;2.60;;
9667;SDS011;4872;48.316;10.650;2023-06-10T15:40:54;2.63;;;2.42;;
9667;SDS011;4872;48.316;10.650;2023-06-10T15:43:21;3.00;;;2.70;;
9667;SDS011;4872;48.316;10.650;2023-06-10T15:45:48;2.72;;;2.53;;
9667;SDS011;4872;48.316;10.650;2023-06-10T15:48:14;3.47;;;3.28;;
9667;SDS011;4872;48.316;10.650;2023-06-10T15:50:41;3.92;;;2.95;;
9667;SDS011;4872;48.316;10.650;2023-06-10T15:53:10;4.18;;;3.35;;
9667;SDS011;4872;48.316;10.650;2023-06-10T15:55:36;3.25;;;3.03;;
9667;SDS011;4872;48.316;10.650;2023-06-10T15:58:04;4.00;;;3.10;;
9667;SDS011;4872;48.316;10.650;2023-06-10T16:00:31;3.25;;;2.90;;
9667;SDS011;4872;48.316;10.650;2023-06-10T16:02:58;3.67;;;3.22;;
9667;SDS011;4872;48.316;10.650;2023-06-10T16:05:25;3.38;;;3.13;;
9667;SDS011;4872;48.316;10.650;2023-06-10T16:07:51;3.50;;;2.92;;
9667;SDS011;4872;48.316;10.650;2023-06-10T16:10:18;3.80;;;3.50;;
9667;SDS011;4872;48.316;10.650;2023-06-10T16:12:47;3.72;;;3.42;;
9667;SDS011;4872;48.316;10.650;2023-06-10T16:15:15;4.63;;;3.47;;
9667;SDS011;4872;48.316;10.650;2023-06-10T16:17:41;4.47;;;3.67;;
9667;SDS011;4872;48.316;10.650;2023-06-10T16:20:09;4.22;;;3.83;;
9667;SDS011;4872;48.316;10.650;2023-06-10T16:22:36;3.92;;;3.63;;
9667;SDS011;4872;48.316;10.650;2023-06-10T16:25:03;3.55;;;3.25;;
9667;SDS011;4872;48.316;10.650;2023-06-10T16:27:30;5.00;;;3.20;;
9667;SDS011;4872;48.316;10.650;2023-06-10T16:29:57;3.63;;;3.33;;
9667;SDS011;4872;48.316;10.650;2023-06-10T16:32:25;3.65;;;3.35;;
9667;SDS011;4872;48.316;10.650;2023-06-10T16:34:52;3.20;;;2.90;;
9667;SDS011;4872;48.316;10.650;2023-06-10T16:37:19;3.13;;;2.83;;
9667;SDS011;4872;48.316;10.650;2023-06-10T16:39:45;3.25;;;3.05;;
9667;SDS011;4872;48.316;10.650;2023-06-10T16:42:12;3.08;;;2.83;;
9667;SDS011;4872;48.316;10.650;2023-06-10T16:44:39;5.60;;;4.95;;
9667;SDS011;4872;48.316;10.650;2023-06-10T16:47:06;5.60;;;3.92;;
9667;SDS011;4872;48.316;10.650;2023-06-10T16:49:34;3.90;;;3.60;;
9667;SDS011;4872;48.316;10.650;2023-06-10T16:52:01;3.30;;;3.10;;
9667;SDS011;4872;48.316;10.650;2023-06-10T16:54:28;3.50;;;3.20;;
9667;SDS011;4872;48.316;10.650;2023-06-10T16:56:54;3.47;;;3.13;;
9667;SDS011;4872;48.316;10.650;2023-06-10T16:59:21;5.30;;;4.25;;
9667;SDS011;4872;48.316;10.650;2023-06-10T17:01:48;4.05;;;3.75;;
9667;SDS011;4872;48.316;10.650;2023-06-10T17:04:14;4.00;;;3.70;;
9667;SDS011;4872;48.316;10.650;2023-06-10T17:06:43;3.70;;;3.35;;
9667;SDS011;4872;48.316;10.650;2023-06-10T17:09:09;4.03;;;3.72;;
9667;SDS011;4872;48.316;10.650;2023-06-10T17:11:36;3.83;;;3.53;;
9667;SDS011;4872;48.316;10.650;2023-06-10T17:14:03;3.90;;;3.60;;
9667;SDS011;4872;48.316;10.650;2023-06-10T17:16:30;3.85;;;3.55;;
9667;SDS011;4872;48.316;10.650;2023-06-10T17:18:56;3.88;;;3.58;;
9667;SDS011;4872;48.316;10.650;2023-06-10T17:21:23;3.70;;;3.42;;
9667;SDS011;4872;48.316;10.650;2023-06-10T17:23:51;4.93;;;4.10;;
9667;SDS011;4872;48.316;10.650;2023-06-10T17:26:18;4.15;;;3.85;;
9667;SDS011;4872;48.316;10.650;2023-06-10T17:28:45;4.03;;;3.72;;
9667;SDS011;4872;48.316;10.650;2023-06-10T17:31:12;4.65;;;4.25;;
9667;SDS011;4872;48.316;10.650;2023-06-10T17:33:38;4.03;;;3.72;;
9667;SDS011;4872;48.316;10.650;2023-06-10T17:36:05;4.03;;;3.72;;
9667;SDS011;4872;48.316;10.650;2023-06-10T17:38:32;4.03;;;3.72;;
9667;SDS011;4872;48.316;10.650;2023-06-10T17:41:00;4.03;;;3.63;;
9667;SDS011;4872;48.316;10.650;2023-06-10T17:43:27;4.43;;;3.38;;
9667;SDS011;4872;48.316;10.650;2023-06-10T17:45:53;3.50;;;3.20;;
9667;SDS011;4872;48.316;10.650;2023-06-10T17:48:21;3.63;;;3.33;;
9667;SDS011;4872;48.316;10.650;2023-06-10T17:50:48;3.60;;;3.30;;
9667;SDS011;4872;48.316;10.650;2023-06-10T17:53:15;3.63;;;3.28;;
9667;SDS011;4872;48.316;10.650;2023-06-10T17:55:42;4.03;;;3.67;;
9667;SDS011;4872;48.316;10.650;2023-06-10T17:58:10;4.65;;;4.10;;
9667;SDS011;4872;48.316;10.650;2023-06-10T18:00:36;3.90;;;3.60;;
9667;SDS011;4872;48.316;10.650;2023-06-10T18:03:03;4.35;;;3.92;;
9667;SDS011;4872;48.316;10.650;2023-06-10T18:05:30;4.07;;;3.78;;
9667;SDS011;4872;48.316;10.650;2023-06-10T18:07:57;4.07;;;3.70;;
9667;SDS011;4872;48.316;10.650;2023-06-10T18:10:23;4.15;;;3.85;;
9667;SDS011;4872;48.316;10.650;2023-06-10T18:12:51;4.15;;;3.63;;
9667;SDS011;4872;48.316;10.650;2023-06-10T18:15:19;4.07;;;3.78;;
9667;SDS011;4872;48.316;10.650;2023-06-10T18:17:45;4.57;;;4.18;;
9667;SDS011;4872;48.316;10.650;2023-06-10T18:20:12;4.00;;;3.70;;
9667;SDS011;4872;48.316;10.650;2023-06-10T18:22:39;4.13;;;3.83;;
9667;SDS011;4872;48.316;10.650;2023-06-10T18:25:06;3.88;;;3.58;;
9667;SDS011;4872;48.316;10.650;2023-06-10T18:27:33;3.83;;;3.53;;
9667;SDS011;4872;48.316;10.650;2023-06-10T18:30:00;4.15;;;3.72;;
9667;SDS011;4872;48.316;10.650;2023-06-10T18:32:28;4.22;;;3.92;;
9667;SDS011;4872;48.316;10.650;2023-06-10T18:34:55;4.28;;;3.88;;
9667;SDS011;4872;48.316;10.650;2023-06-10T18:37:22;4.55;;;3.90;;
9667;SDS011;4872;48.316;10.650;2023-06-10T18:39:49;4.38;;;4.03;;
9667;SDS011;4872;48.316;10.650;2023-06-10T18:42:16;4.65;;;4.28;;
9667;SDS011;4872;48.316;10.650;2023-06-10T18:44:43;5.13;;;4.72;;
9667;SDS011;4872;48.316;10.650;2023-06-10T18:47:10;4.40;;;4.10;;
9667;SDS011;4872;48.316;10.650;2023-06-10T18:49:38;4.23;;;3.93;;
9667;SDS011;4872;48.316;10.650;2023-06-10T18:52:05;5.27;;;4.77;;
9667;SDS011;4872;48.316;10.650;2023-06-10T18:54:33;4.87;;;4.47;;
9667;SDS011;4872;48.316;10.650;2023-06-10T18:57:00;4.83;;;4.43;;
9667;SDS011;4872;48.316;10.650;2023-06-10T18:59:27;4.57;;;4.13;;
9667;SDS011;4872;48.316;10.650;2023-06-10T19:01:53;4.50;;;4.10;;
9667;SDS011;4872;48.316;10.650;2023-06-10T19:04:20;5.03;;;4.63;;
9667;SDS011;4872;48.316;10.650;2023-06-10T19:06:48;4.40;;;4.00;;
9667;SDS011;4872;48.316;10.650;2023-06-10T19:09:15;5.30;;;4.80;;